Terminal Aerodrome Forecast
Issued by NWS

Home | Current Version | Previous Version | Text Only | Print | Product List | Glossary On
Versions: 1 2 3 4 5 6 7 8 9 10 11 12 13 14 15 16
332
FTUS43 KJKL 161735 AAA
TAFSME
TAF AMD
KSME 161735Z 1618/1718 VRB05KT P6SM VCSH SCT050
     FM162200 VRB03KT P6SM BKN060
     FM170800 VRB03KT P6SM BKN025
     FM171100 VRB03KT P6SM BKN008
     FM171300 VRB04KT P6SM BKN020
     FM171600 23008KT P6SM SCT040=

USA.gov is the U.S. government's official web portal to all federal, state and local government web resources and services.